Waterford, Virginia
Current Conditions -  °F | °C
As of 10:15 AM on Wednesday 22 Oct 2014 (Local Time) from KJYO Reporting Station
Overcast Overcast  
Wind Chill: 55°   Ceiling: 3600
Heat Index: 55°   Visibility: 10mi
Dew Point: 52°   Wind: 14mph
Humidity: 88%   Direction: 350°N
Pressure: 29.97"   Gusts: 24mph
Location:  39.19°N, 77.61°W
Report Text: KJYO 221415Z AUTO 35012G21KT 10SM BKN036 OVC050 13/11 A2997 RMK AO2 LTG DSNT S
Loading
Personal Weather Stations






























Interactive Weather Map
Tropical Storm Tracking
New forecast layout! Learn more

10-Day Weather Forecast

Advertisements
Track Severe Weather on mobile